createdAt,value
2022-09-29T00:19:00.202Z,11.80
2022-09-29T00:23:05.014Z,13.60
2022-09-29T00:30:41.770Z,13.30
2022-09-29T00:34:37.631Z,11.30
2022-09-29T00:38:36.731Z,13.40
2022-09-29T00:46:29.179Z,10.60
2022-09-29T00:50:28.082Z,10.70
2022-09-29T00:58:53.898Z,14.60
2022-09-29T01:02:14.052Z,10.70
2022-09-29T01:05:47.853Z,10.30
2022-09-29T01:08:41.410Z,21.50
2022-09-29T01:11:31.371Z,11.70
2022-09-29T01:14:20.842Z,11.90
2022-09-29T01:17:09.199Z,10.90
2022-09-29T01:20:04.845Z,12.90
2022-09-29T01:23:14.603Z,13.80
2022-09-29T01:26:16.805Z,8.30
2022-09-29T01:29:18.870Z,10.30
2022-09-29T01:32:15.689Z,10.60
2022-09-29T01:35:27.660Z,10.10
2022-09-29T01:38:36.167Z,10.30
2022-09-29T01:41:54.808Z,12.80
2022-09-29T01:45:39.353Z,8.70
2022-09-29T01:48:33.474Z,12.70
2022-09-29T01:51:29.582Z,12.30
2022-09-29T01:54:23.757Z,9.40
2022-09-29T01:57:26.041Z,9.90
2022-09-29T02:00:21.520Z,10.20
2022-09-29T02:03:41.993Z,10.70
2022-09-29T02:06:44.835Z,13.30
2022-09-29T02:09:40.540Z,10.30
2022-09-29T02:12:34.484Z,10.20
2022-09-29T02:15:30.870Z,11.00
2022-09-29T02:18:22.881Z,6.30
2022-09-29T02:21:09.637Z,9.80
2022-09-29T02:23:59.647Z,8.80
2022-09-29T02:26:47.759Z,8.40
2022-09-29T02:29:37.713Z,10.80
2022-09-29T02:32:29.793Z,9.30
2022-09-29T02:35:19.934Z,11.70
2022-09-29T02:38:23.468Z,13.30
2022-09-29T02:41:50.125Z,15.80
2022-09-29T02:44:55.153Z,6.40
2022-09-29T02:48:00.306Z,10.80
2022-09-29T02:51:34.692Z,9.60
2022-09-29T02:54:57.082Z,16.60
2022-09-29T02:57:44.023Z,10.70
2022-09-29T03:00:32.133Z,7.30
2022-09-29T03:03:20.081Z,6.10
2022-09-29T03:06:07.510Z,10.50
2022-09-29T03:08:58.504Z,9.30
2022-09-29T03:11:46.950Z,10.20
2022-09-29T03:14:34.047Z,7.00
2022-09-29T03:17:24.122Z,11.80
2022-09-29T03:20:12.172Z,12.60
2022-09-29T03:22:59.201Z,9.40
2022-09-29T03:25:46.663Z,11.30
2022-09-29T03:28:35.702Z,11.60
2022-09-29T03:31:25.229Z,10.30
2022-09-29T03:34:21.374Z,10.00
2022-09-29T03:37:09.552Z,7.90
2022-09-29T03:39:56.789Z,12.10
2022-09-29T03:42:47.566Z,11.00
2022-09-29T03:45:35.187Z,25.80
2022-09-29T03:48:24.828Z,14.30
2022-09-29T03:51:12.906Z,7.80
2022-09-29T03:53:59.706Z,7.70
2022-09-29T03:56:47.161Z,11.50
2022-09-29T03:59:34.424Z,8.00
2022-09-29T04:02:22.005Z,8.50
2022-09-29T04:05:09.507Z,10.00
2022-09-29T04:07:57.017Z,7.20
2022-09-29T04:10:49.766Z,10.20
2022-09-29T04:13:37.760Z,8.70
2022-09-29T04:16:26.009Z,8.40
2022-09-29T04:19:13.797Z,10.40
2022-09-29T04:22:01.355Z,15.80
2022-09-29T04:24:48.902Z,9.30
2022-09-29T04:27:36.669Z,9.00
2022-09-29T04:30:24.696Z,7.70
2022-09-29T04:33:14.031Z,9.70
2022-09-29T04:36:01.796Z,11.40
2022-09-29T04:38:51.666Z,6.00
2022-09-29T04:41:47.124Z,11.90
2022-09-29T04:44:34.185Z,9.00
2022-09-29T04:47:23.305Z,9.30
2022-09-29T04:50:10.934Z,6.50
2022-09-29T04:52:58.949Z,7.10
2022-09-29T04:55:49.642Z,5.20
2022-09-29T04:58:56.999Z,12.70
2022-09-29T05:01:49.312Z,6.10
2022-09-29T05:04:51.485Z,18.70
2022-09-29T05:07:42.351Z,15.90
2022-09-29T05:10:33.938Z,11.00
2022-09-29T05:13:21.991Z,10.30
2022-09-29T05:16:12.557Z,13.60
2022-09-29T05:19:03.619Z,16.70
2022-09-29T05:21:57.156Z,19.90
2022-09-29T05:24:44.420Z,12.30
2022-09-29T05:27:31.924Z,10.10
2022-09-29T05:30:19.407Z,11.90
2022-09-29T05:33:09.952Z,10.70
2022-09-29T05:35:59.782Z,12.40
2022-09-29T05:38:47.757Z,8.20
2022-09-29T05:41:40.207Z,12.60
2022-09-29T05:44:27.142Z,7.20
2022-09-29T05:47:13.707Z,12.40
2022-09-29T05:50:01.271Z,12.40
2022-09-29T05:52:53.183Z,15.90
2022-09-29T05:55:45.231Z,16.70
2022-09-29T05:58:40.092Z,8.30
2022-09-29T06:01:28.461Z,13.80
2022-09-29T06:04:17.696Z,13.70
2022-09-29T06:07:23.313Z,14.20
2022-09-29T06:10:10.942Z,11.70
2022-09-29T06:13:04.295Z,16.90
2022-09-29T06:15:54.651Z,17.50
2022-09-29T06:18:51.199Z,22.40
2022-09-29T06:22:00.988Z,18.80
2022-09-29T06:24:53.850Z,22.40
2022-09-29T06:27:40.715Z,29.00
2022-09-29T06:30:28.950Z,15.70
2022-09-29T06:33:16.626Z,14.60
2022-09-29T06:36:31.952Z,12.00
2022-09-29T06:39:22.465Z,13.10
2022-09-29T06:42:09.628Z,26.40
2022-09-29T06:45:08.598Z,21.30
2022-09-29T06:48:04.024Z,16.10
2022-09-29T06:51:04.940Z,19.50
2022-09-29T06:54:10.231Z,11.40
2022-09-29T06:57:21.270Z,14.90
2022-09-29T07:00:17.390Z,12.30
2022-09-29T07:03:05.679Z,38.90
2022-09-29T07:06:18.935Z,19.80
2022-09-29T07:09:05.965Z,13.50
2022-09-29T07:11:54.768Z,14.60
2022-09-29T07:14:41.698Z,12.30
2022-09-29T07:17:29.128Z,15.10
2022-09-29T07:20:16.936Z,13.10
2022-09-29T07:23:04.536Z,13.30
2022-09-29T07:25:54.634Z,15.60
2022-09-29T07:28:42.007Z,14.60
2022-09-29T07:31:50.204Z,19.70
2022-09-29T07:34:38.873Z,18.30
2022-09-29T07:37:26.992Z,13.40
2022-09-29T07:40:15.425Z,13.30
2022-09-29T07:43:06.061Z,13.30
2022-09-29T07:45:56.841Z,12.80
2022-09-29T07:48:53.319Z,13.20
2022-09-29T07:52:11.544Z,12.90
2022-09-29T07:54:58.737Z,12.90
2022-09-29T07:57:48.977Z,10.90
2022-09-29T08:00:36.396Z,10.50
2022-09-29T08:03:26.123Z,11.10
2022-09-29T08:06:14.062Z,13.00
2022-09-29T08:09:05.519Z,10.90
2022-09-29T08:14:59.082Z,11.30
2022-09-29T08:18:06.165Z,19.20
2022-09-29T08:21:15.542Z,20.70
2022-09-29T08:24:06.017Z,11.40
2022-09-29T08:27:13.058Z,13.00
2022-09-29T08:30:23.301Z,10.30
2022-09-29T08:33:18.804Z,12.90
2022-09-29T08:36:26.876Z,11.40
2022-09-29T08:40:03.991Z,9.20
2022-09-29T08:43:30.041Z,5.00
2022-09-29T08:50:46.968Z,8.40
2022-09-29T08:54:03.282Z,7.90
2022-09-29T08:57:21.338Z,10.50
2022-09-29T09:00:41.102Z,6.40
2022-09-29T09:04:28.539Z,5.10
2022-09-29T09:07:40.029Z,6.40
2022-09-29T09:11:02.286Z,7.60
2022-09-29T09:14:36.173Z,8.00
2022-09-29T09:18:17.767Z,6.90
2022-09-29T09:22:02.350Z,9.20
2022-09-29T09:25:33.517Z,5.30
2022-09-29T09:28:49.050Z,5.20
2022-09-29T09:31:49.226Z,5.30
2022-09-29T09:34:47.508Z,9.40
2022-09-29T09:37:45.029Z,5.10
2022-09-29T09:40:44.412Z,6.30
2022-09-29T09:43:38.631Z,4.00
2022-09-29T09:46:56.572Z,4.10
2022-09-29T09:49:52.466Z,7.20
2022-09-29T09:52:48.131Z,4.60
2022-09-29T09:55:37.123Z,4.00
2022-09-29T09:58:37.313Z,3.70
2022-09-29T10:01:26.194Z,5.00
2022-09-29T10:04:14.265Z,7.20
2022-09-29T10:07:01.353Z,6.30
2022-09-29T10:09:48.575Z,5.70
2022-09-29T10:12:38.798Z,5.90
2022-09-29T10:15:37.281Z,4.70
2022-09-29T10:18:36.954Z,5.70
2022-09-29T10:21:38.537Z,6.10
2022-09-29T10:24:33.470Z,5.60
2022-09-29T10:27:24.395Z,4.60
2022-09-29T10:30:38.074Z,6.00
2022-09-29T10:33:28.626Z,5.90
2022-09-29T10:36:18.365Z,5.70
2022-09-29T10:39:08.018Z,7.80
2022-09-29T10:41:55.269Z,11.50
2022-09-29T10:44:45.553Z,9.50
2022-09-29T10:47:35.796Z,10.00
2022-09-29T10:50:33.488Z,13.00
2022-09-29T10:53:26.369Z,9.60
2022-09-29T10:56:31.961Z,11.00
2022-09-29T10:59:20.653Z,14.50
2022-09-29T11:02:29.293Z,10.60
2022-09-29T11:05:23.885Z,7.80
2022-09-29T11:08:14.056Z,9.10
2022-09-29T11:11:07.123Z,10.20
2022-09-29T11:16:56.127Z,14.30
2022-09-29T11:19:46.200Z,6.60
2022-09-29T11:22:47.176Z,7.20
2022-09-29T11:26:07.744Z,9.50
2022-09-29T11:29:20.972Z,10.50
2022-09-29T11:32:40.460Z,8.40
2022-09-29T11:36:26.931Z,9.30
2022-09-29T11:39:16.726Z,6.20
2022-09-29T11:42:17.053Z,16.90
2022-09-29T11:45:08.519Z,10.40
2022-09-29T11:48:07.102Z,4.80
2022-09-29T11:51:32.084Z,11.00
2022-09-29T11:55:00.708Z,7.40
2022-09-29T11:58:02.444Z,6.50
2022-09-29T12:01:00.340Z,7.40
2022-09-29T12:04:09.145Z,7.90
2022-09-29T12:07:28.527Z,8.30
2022-09-29T12:10:45.057Z,8.50
2022-09-29T12:14:06.084Z,5.20
2022-09-29T12:17:07.228Z,9.40
2022-09-29T12:20:03.804Z,9.00
2022-09-29T12:22:54.964Z,8.30
2022-09-29T12:25:56.480Z,7.60
2022-09-29T12:28:58.846Z,7.50
2022-09-29T12:31:54.386Z,5.80
2022-09-29T12:34:54.079Z,6.50
2022-09-29T12:37:53.487Z,4.00
2022-09-29T12:40:45.136Z,5.70
2022-09-29T12:47:03.432Z,6.20
2022-09-29T12:50:21.728Z,7.40
2022-09-29T12:53:22.053Z,3.60
2022-09-29T12:56:25.677Z,5.90
2022-09-29T12:59:33.743Z,3.10
2022-09-29T13:02:30.180Z,3.40
2022-09-29T13:05:47.069Z,4.10
2022-09-29T13:09:05.826Z,3.30
2022-09-29T13:12:37.127Z,2.70
2022-09-29T13:15:47.345Z,2.70
2022-09-29T13:19:00.172Z,2.80
2022-09-29T13:22:18.273Z,4.00
2022-09-29T13:25:48.820Z,5.20
2022-09-29T13:28:44.202Z,4.60
2022-09-29T13:31:39.161Z,5.30
2022-09-29T13:34:35.056Z,4.90
2022-09-29T13:37:25.644Z,3.60
2022-09-29T13:40:36.654Z,3.90
2022-09-29T13:43:53.233Z,4.60
2022-09-29T13:46:41.145Z,4.20
2022-09-29T13:49:30.587Z,2.90
2022-09-29T13:52:32.125Z,3.20
2022-09-29T13:56:04.235Z,4.70
2022-09-29T13:58:52.219Z,6.20
2022-09-29T14:01:40.720Z,3.90
2022-09-29T14:04:45.376Z,9.00
2022-09-29T14:07:46.951Z,3.70
2022-09-29T14:10:45.520Z,3.50
2022-09-29T14:13:53.084Z,4.70
2022-09-29T14:16:54.015Z,3.30
2022-09-29T14:19:53.582Z,5.70
2022-09-29T14:22:44.067Z,5.10
2022-09-29T14:25:44.297Z,4.60
2022-09-29T14:28:43.679Z,5.10
2022-09-29T14:31:32.320Z,3.70
2022-09-29T14:34:24.136Z,4.50
2022-09-29T14:37:22.220Z,5.60
2022-09-29T14:40:28.518Z,3.00
2022-09-29T14:43:17.887Z,4.00
2022-09-29T14:46:37.646Z,3.50
2022-09-29T14:50:07.479Z,3.10
2022-09-29T14:52:58.333Z,4.00
2022-09-29T14:56:06.963Z,3.60
2022-09-29T14:59:34.772Z,2.90
2022-09-29T15:02:26.930Z,4.00
2022-09-29T15:05:42.260Z,2.70
2022-09-29T15:08:36.657Z,3.10
2022-09-29T15:11:35.655Z,4.70
2022-09-29T15:14:39.427Z,3.80
2022-09-29T15:17:55.743Z,3.10
2022-09-29T15:20:43.174Z,3.60
2022-09-29T15:23:47.337Z,3.60
2022-09-29T15:26:37.822Z,3.20
2022-09-29T15:29:25.611Z,3.50
2022-09-29T15:32:23.584Z,3.90
2022-09-29T15:35:15.010Z,3.20
2022-09-29T15:38:29.207Z,3.40
2022-09-29T15:41:19.629Z,4.90
2022-09-29T15:44:20.066Z,3.80
2022-09-29T15:47:20.777Z,3.80
2022-09-29T15:50:42.770Z,4.40
2022-09-29T15:53:33.033Z,14.70
2022-09-29T15:56:20.185Z,4.60
2022-09-29T15:59:21.596Z,8.20
2022-09-29T16:02:16.557Z,3.60
2022-09-29T16:05:12.216Z,6.00
2022-09-29T16:08:07.488Z,7.30
2022-09-29T16:11:05.206Z,7.30
2022-09-29T16:14:07.934Z,8.00
2022-09-29T16:16:55.557Z,9.50
2022-09-29T16:19:47.372Z,7.10
2022-09-29T16:22:34.907Z,8.70
2022-09-29T16:25:29.874Z,16.00
2022-09-29T16:28:28.351Z,23.40
2022-09-29T16:31:24.165Z,25.00
2022-09-29T16:34:21.989Z,23.20
2022-09-29T16:37:20.520Z,18.30
2022-09-29T16:40:25.821Z,17.80
2022-09-29T16:43:33.536Z,13.80
2022-09-29T16:46:22.933Z,16.10
2022-09-29T16:49:38.675Z,18.70
2022-09-29T16:52:33.257Z,10.00
2022-09-29T16:55:29.828Z,14.00
2022-09-29T16:58:17.314Z,11.70
2022-09-29T17:01:04.932Z,8.60
2022-09-29T17:03:54.140Z,6.70
2022-09-29T17:06:46.811Z,8.30
2022-09-29T17:09:34.049Z,7.70
2022-09-29T17:12:21.575Z,5.60
2022-09-29T17:15:17.708Z,5.20
2022-09-29T17:18:04.839Z,3.70
2022-09-29T17:20:53.942Z,6.70
2022-09-29T17:23:43.395Z,7.40
2022-09-29T17:27:04.364Z,3.90
2022-09-29T17:29:52.453Z,5.70
2022-09-29T17:32:42.440Z,5.70
2022-09-29T17:35:33.710Z,6.80
2022-09-29T17:38:23.675Z,8.40
2022-09-29T17:41:16.371Z,5.40
2022-09-29T17:44:06.226Z,9.50
2022-09-29T17:47:01.062Z,7.40
2022-09-29T17:50:17.635Z,6.80
2022-09-29T17:53:05.025Z,12.20
2022-09-29T17:55:54.896Z,11.00
2022-09-29T17:58:42.381Z,11.10
2022-09-29T18:01:31.495Z,15.20
2022-09-29T18:04:19.476Z,11.10
2022-09-29T18:07:07.277Z,10.60
2022-09-29T18:09:54.698Z,10.70
2022-09-29T18:12:42.204Z,10.60
2022-09-29T18:15:30.535Z,8.40
2022-09-29T18:18:20.980Z,8.90
2022-09-29T18:21:10.832Z,11.70
2022-09-29T18:23:58.402Z,9.10
2022-09-29T18:26:46.987Z,19.80
2022-09-29T18:29:34.069Z,10.80
2022-09-29T18:32:21.437Z,11.80
2022-09-29T18:35:22.907Z,15.80
2022-09-29T18:38:10.857Z,15.10
2022-09-29T18:40:58.372Z,17.70
2022-09-29T18:43:48.853Z,13.70
2022-09-29T18:46:38.108Z,17.50
2022-09-29T18:49:26.749Z,17.30
2022-09-29T18:52:14.179Z,14.30
2022-09-29T18:55:01.455Z,10.60
2022-09-29T18:57:49.648Z,12.40
2022-09-29T19:00:42.596Z,9.90
2022-09-29T19:03:30.390Z,13.70
2022-09-29T19:06:20.847Z,20.60
2022-09-29T19:09:08.720Z,12.50
2022-09-29T19:12:00.590Z,13.70
2022-09-29T19:14:48.482Z,15.20
2022-09-29T19:17:35.959Z,13.70
2022-09-29T19:20:26.231Z,13.30
2022-09-29T19:23:13.834Z,15.10
2022-09-29T19:26:02.098Z,13.50
2022-09-29T19:28:52.527Z,15.80
2022-09-29T19:31:39.747Z,18.50
2022-09-29T19:34:28.369Z,16.30
2022-09-29T19:37:15.839Z,27.00
2022-09-29T19:40:07.282Z,31.60
2022-09-29T19:42:55.015Z,17.60
2022-09-29T19:45:43.504Z,31.90
2022-09-29T19:48:30.836Z,39.00
2022-09-29T19:51:37.623Z,24.00
2022-09-29T19:54:28.302Z,36.20
2022-09-29T19:57:18.641Z,34.50
2022-09-29T20:00:06.228Z,32.50
2022-09-29T20:03:02.747Z,35.50
2022-09-29T20:05:50.331Z,20.40
2022-09-29T20:08:37.741Z,23.30
2022-09-29T20:11:27.770Z,24.00
2022-09-29T20:14:18.296Z,23.30
2022-09-29T20:17:08.367Z,20.50
2022-09-29T20:19:56.524Z,23.70
2022-09-29T20:22:46.240Z,15.20
2022-09-29T20:25:34.455Z,20.40
2022-09-29T20:28:21.429Z,22.50
2022-09-29T20:31:11.368Z,19.70
2022-09-29T20:34:01.665Z,17.20
2022-09-29T20:36:54.531Z,37.40
2022-09-29T20:39:42.404Z,42.90
2022-09-29T20:42:32.928Z,40.40
2022-09-29T20:45:20.454Z,25.60
2022-09-29T20:48:08.293Z,32.30
2022-09-29T20:50:59.141Z,33.80
2022-09-29T20:54:04.502Z,23.40
2022-09-29T20:56:52.481Z,24.10
2022-09-29T20:59:39.950Z,22.60
2022-09-29T21:02:27.478Z,19.00
2022-09-29T21:05:15.081Z,24.80
2022-09-29T21:08:03.099Z,34.70
2022-09-29T21:10:58.293Z,20.00
2022-09-29T21:13:51.013Z,28.20
2022-09-29T21:16:42.042Z,22.70
2022-09-29T21:19:29.930Z,23.70
2022-09-29T21:22:19.267Z,23.60
2022-09-29T21:25:09.236Z,17.60
2022-09-29T21:27:56.389Z,22.40
2022-09-29T21:30:43.257Z,26.60
2022-09-29T21:33:31.644Z,25.70
2022-09-29T21:36:18.535Z,20.70
2022-09-29T21:39:08.808Z,37.20
2022-09-29T21:41:57.089Z,13.20
2022-09-29T21:44:47.189Z,22.80
2022-09-29T21:47:52.701Z,16.30
2022-09-29T21:50:43.501Z,19.30
2022-09-29T21:53:31.991Z,16.30
2022-09-29T21:56:25.697Z,25.60
2022-09-29T21:59:15.689Z,26.00
2022-09-29T22:02:02.847Z,12.70
2022-09-29T22:04:50.011Z,22.40
2022-09-29T22:07:37.352Z,17.80
2022-09-29T22:10:24.418Z,17.10
2022-09-29T22:13:12.244Z,22.00
2022-09-29T22:16:06.689Z,31.60
2022-09-29T22:19:21.314Z,21.00
2022-09-29T22:22:04.096Z,23.00
2022-09-29T22:25:11.850Z,24.20
2022-09-29T22:28:02.167Z,26.10
2022-09-29T22:30:55.717Z,26.30
2022-09-29T22:33:45.173Z,26.40
2022-09-29T22:36:34.717Z,30.90
2022-09-29T22:39:21.871Z,24.30
2022-09-29T22:42:15.332Z,22.80
2022-09-29T22:45:08.063Z,22.30
2022-09-29T22:48:02.354Z,21.70
2022-09-29T22:50:49.367Z,27.30
2022-09-29T22:53:45.240Z,33.40
2022-09-29T22:56:33.130Z,19.50
2022-09-29T22:59:23.451Z,31.70
2022-09-29T23:02:13.005Z,21.30
2022-09-29T23:05:03.681Z,22.50
2022-09-29T23:07:51.321Z,22.40
2022-09-29T23:10:47.652Z,29.10
2022-09-29T23:13:40.171Z,26.50
2022-09-29T23:16:28.764Z,23.60
2022-09-29T23:19:19.421Z,33.60
2022-09-29T23:22:09.334Z,30.80
2022-09-29T23:24:56.988Z,38.90
2022-09-29T23:27:48.858Z,21.40
2022-09-29T23:30:41.601Z,18.30
2022-09-29T23:33:31.609Z,21.30
2022-09-29T23:36:21.663Z,10.80
2022-09-29T23:39:14.114Z,20.10
2022-09-29T23:42:01.885Z,21.60
2022-09-29T23:44:49.577Z,23.60
2022-09-29T23:47:36.455Z,23.70
2022-09-29T23:50:26.857Z,22.50
2022-09-29T23:53:28.846Z,16.60
2022-09-29T23:56:19.139Z,25.00
2022-09-29T23:59:06.779Z,20.80
